createdAt,value
2022-12-18T00:02:05.371Z,-3.24
2022-12-18T00:04:31.942Z,-3.28
2022-12-18T00:06:58.466Z,-3.32
2022-12-18T00:09:25.256Z,-3.35
2022-12-18T00:11:57.827Z,-3.38
2022-12-18T00:14:24.216Z,-3.38
2022-12-18T00:16:50.640Z,-3.38
2022-12-18T00:19:17.127Z,-3.38
2022-12-18T00:21:44.633Z,-3.41
2022-12-18T00:24:11.824Z,-3.42
2022-12-18T00:26:39.626Z,-3.39
2022-12-18T00:29:11.257Z,-3.40
2022-12-18T00:31:38.410Z,-3.43
2022-12-18T00:34:05.024Z,-3.43
2022-12-18T00:36:34.333Z,-3.46
2022-12-18T00:39:05.026Z,-3.47
2022-12-18T00:41:50.101Z,-3.53
2022-12-18T00:44:18.968Z,-3.55
2022-12-18T00:46:46.606Z,-3.59
2022-12-18T00:49:13.155Z,-3.63
2022-12-18T00:51:40.308Z,-3.65
2022-12-18T00:54:06.834Z,-3.66
2022-12-18T00:56:33.208Z,-3.63
2022-12-18T00:58:59.726Z,-3.61
2022-12-18T01:01:26.504Z,-3.61
2022-12-18T01:03:53.127Z,-3.66
2022-12-18T01:06:19.587Z,-3.66
2022-12-18T01:08:46.052Z,-3.66
2022-12-18T01:11:15.299Z,-3.70
2022-12-18T01:13:42.272Z,-3.71
2022-12-18T01:16:09.893Z,-3.70
2022-12-18T01:18:36.523Z,-3.69
2022-12-18T01:21:10.174Z,-3.69
2022-12-18T01:23:37.127Z,-3.67
2022-12-18T01:26:08.863Z,-3.70
2022-12-18T01:28:35.329Z,-3.72
2022-12-18T01:31:12.014Z,-3.71
2022-12-18T01:33:38.921Z,-3.75
2022-12-18T01:36:06.217Z,-3.75
2022-12-18T01:38:32.764Z,-3.75
2022-12-18T01:41:02.933Z,-3.80
2022-12-18T01:43:45.737Z,-3.81
2022-12-18T01:46:13.287Z,-3.85
2022-12-18T01:48:40.409Z,-3.89
2022-12-18T01:51:09.509Z,-3.89
2022-12-18T01:53:38.394Z,-3.90
2022-12-18T01:56:05.559Z,-3.92
2022-12-18T01:58:50.392Z,-3.94
2022-12-18T02:01:17.205Z,-3.99
2022-12-18T02:03:45.274Z,-4.02
2022-12-18T02:06:24.241Z,-4.05
2022-12-18T02:08:59.665Z,-4.09
2022-12-18T02:11:37.906Z,-4.10
2022-12-18T02:14:04.275Z,-4.12
2022-12-18T02:16:49.333Z,-4.16
2022-12-18T02:19:44.677Z,-4.16
2022-12-18T02:22:23.338Z,-4.18
2022-12-18T02:25:27.067Z,-4.18
2022-12-18T02:27:55.689Z,-4.22
2022-12-18T02:30:23.208Z,-4.23
2022-12-18T02:32:53.421Z,-4.24
2022-12-18T02:35:28.454Z,-4.25
2022-12-18T02:37:55.864Z,-4.27
2022-12-18T02:40:24.554Z,-4.28
2022-12-18T02:42:51.099Z,-4.30
2022-12-18T02:45:17.948Z,-4.31
2022-12-18T02:47:48.177Z,-4.32
2022-12-18T02:50:31.619Z,-4.33
2022-12-18T02:53:14.800Z,-4.34
2022-12-18T02:56:09.033Z,-4.35
2022-12-18T02:58:55.300Z,-4.38
2022-12-18T03:01:56.082Z,-4.43
2022-12-18T03:04:38.590Z,-4.43
2022-12-18T03:07:12.527Z,-4.44
2022-12-18T03:09:46.990Z,-4.45
2022-12-18T03:12:25.308Z,-4.45
2022-12-18T03:15:09.536Z,-4.48
2022-12-18T03:17:41.383Z,-4.49
2022-12-18T03:20:15.302Z,-4.51
2022-12-18T03:22:45.180Z,-4.54
2022-12-18T03:25:14.853Z,-4.58
2022-12-18T03:27:46.871Z,-4.58
2022-12-18T03:30:15.353Z,-4.61
2022-12-18T03:33:02.744Z,-4.63
2022-12-18T03:35:34.856Z,-4.64
2022-12-18T03:38:01.723Z,-4.69
2022-12-18T03:40:41.608Z,-4.68
2022-12-18T03:43:36.543Z,-4.68
2022-12-18T03:46:12.997Z,-4.71
2022-12-18T03:48:45.118Z,-4.72
2022-12-18T03:51:19.810Z,-4.74
2022-12-18T03:53:49.163Z,-4.76
2022-12-18T03:56:17.996Z,-4.78
2022-12-18T03:58:46.303Z,-4.81
2022-12-18T04:01:16.645Z,-4.83
2022-12-18T04:03:46.862Z,-4.86
2022-12-18T04:06:15.860Z,-4.88
2022-12-18T04:08:43.071Z,-4.91
2022-12-18T04:11:09.660Z,-4.91
2022-12-18T04:13:38.657Z,-4.93
2022-12-18T04:16:06.404Z,-4.94
2022-12-18T04:18:32.945Z,-4.98
2022-12-18T04:20:59.347Z,-4.99
2022-12-18T04:23:25.811Z,-4.98
2022-12-18T04:25:52.255Z,-5.00
2022-12-18T04:28:18.782Z,-5.02
2022-12-18T04:30:51.748Z,-5.03
2022-12-18T04:33:19.485Z,-5.04
2022-12-18T04:35:46.359Z,-5.05
2022-12-18T04:38:12.961Z,-5.06
2022-12-18T04:40:39.397Z,-5.08
2022-12-18T04:43:07.723Z,-5.09
2022-12-18T04:45:34.717Z,-5.10
2022-12-18T04:48:02.413Z,-5.10
2022-12-18T04:50:29.138Z,-5.12
2022-12-18T04:52:55.790Z,-5.14
2022-12-18T04:55:25.347Z,-5.15
2022-12-18T04:57:51.798Z,-5.18
2022-12-18T05:00:18.548Z,-5.17
2022-12-18T05:02:45.113Z,-5.18
2022-12-18T05:05:11.805Z,-5.20
2022-12-18T05:07:38.233Z,-5.22
2022-12-18T05:10:07.850Z,-5.22
2022-12-18T05:12:34.373Z,-5.22
2022-12-18T05:15:00.802Z,-5.23
2022-12-18T05:17:27.211Z,-5.22
2022-12-18T05:19:53.594Z,-5.22
2022-12-18T05:22:20.026Z,-5.23
2022-12-18T05:24:46.457Z,-5.23
2022-12-18T05:27:12.841Z,-5.23
2022-12-18T05:29:39.367Z,-5.24
2022-12-18T05:32:05.735Z,-5.24
2022-12-18T05:34:32.204Z,-5.24
2022-12-18T05:36:58.579Z,-5.25
2022-12-18T05:39:24.968Z,-5.26
2022-12-18T05:41:51.345Z,-5.28
2022-12-18T05:44:17.854Z,-5.27
2022-12-18T05:46:44.365Z,-5.29
2022-12-18T05:49:10.854Z,-5.28
2022-12-18T05:51:37.357Z,-5.30
2022-12-18T05:54:03.962Z,-5.32
2022-12-18T05:56:32.180Z,-5.34
2022-12-18T05:58:58.783Z,-5.36
2022-12-18T06:01:27.327Z,-5.37
2022-12-18T06:03:53.965Z,-5.40
2022-12-18T06:06:23.925Z,-5.41
2022-12-18T06:08:51.635Z,-5.42
2022-12-18T06:11:20.959Z,-5.45
2022-12-18T06:13:53.567Z,-5.47
2022-12-18T06:16:24.268Z,-5.49
2022-12-18T06:18:50.852Z,-5.53
2022-12-18T06:21:17.236Z,-5.55
2022-12-18T06:23:43.787Z,-5.55
2022-12-18T06:26:12.341Z,-5.55
2022-12-18T06:28:39.195Z,-5.59
2022-12-18T06:31:06.093Z,-5.61
2022-12-18T06:33:33.491Z,-5.62
2022-12-18T06:36:12.481Z,-5.64
2022-12-18T06:38:41.711Z,-5.65
2022-12-18T06:41:09.707Z,-5.66
2022-12-18T06:43:36.269Z,-5.71
2022-12-18T06:46:04.404Z,-5.72
2022-12-18T06:48:31.425Z,-5.72
2022-12-18T06:50:58.071Z,-5.74
2022-12-18T06:53:24.834Z,-5.75
2022-12-18T06:55:51.382Z,-5.76
2022-12-18T06:58:18.184Z,-5.77
2022-12-18T07:00:44.622Z,-5.78
2022-12-18T07:03:12.328Z,-5.78
2022-12-18T07:05:41.843Z,-5.78
2022-12-18T07:08:08.306Z,-5.79
2022-12-18T07:10:35.261Z,-5.80
2022-12-18T07:13:01.666Z,-5.83
2022-12-18T07:15:28.079Z,-5.84
2022-12-18T07:17:54.557Z,-5.83
2022-12-18T07:20:21.021Z,-5.83
2022-12-18T07:22:50.799Z,-5.83
2022-12-18T07:25:19.680Z,-5.83
2022-12-18T07:27:46.095Z,-5.83
2022-12-18T07:30:12.680Z,-5.84
2022-12-18T07:32:39.084Z,-5.82
2022-12-18T07:35:05.708Z,-5.82
2022-12-18T07:37:32.108Z,-5.85
2022-12-18T07:39:58.565Z,-5.86
2022-12-18T07:42:33.799Z,-5.85
2022-12-18T07:45:01.343Z,-5.85
2022-12-18T07:47:29.107Z,-5.85
2022-12-18T07:49:56.532Z,-5.85
2022-12-18T07:52:26.252Z,-5.83
2022-12-18T07:54:52.933Z,-5.83
2022-12-18T07:57:48.359Z,-5.81
2022-12-18T08:00:06.429Z,-5.81
2022-12-18T08:02:33.151Z,-5.79
2022-12-18T08:04:59.790Z,-5.77
2022-12-18T08:07:26.154Z,-5.76
2022-12-18T08:09:52.588Z,-5.75
2022-12-18T08:12:19.149Z,-5.71
2022-12-18T08:14:45.540Z,-5.66
2022-12-18T08:17:11.974Z,-5.63
2022-12-18T08:19:38.360Z,-5.58
2022-12-18T08:22:04.802Z,-5.53
2022-12-18T08:24:31.604Z,-5.49
2022-12-18T08:27:27.850Z,-5.44
2022-12-18T08:29:44.635Z,-5.42
2022-12-18T08:32:11.251Z,-5.39
2022-12-18T08:34:37.754Z,-5.38
2022-12-18T08:37:04.467Z,-5.35
2022-12-18T08:39:31.593Z,-5.34
2022-12-18T08:42:16.577Z,-5.32
2022-12-18T08:44:43.040Z,-5.29
2022-12-18T08:47:09.481Z,-5.27
2022-12-18T08:49:36.178Z,-5.25
2022-12-18T08:52:03.739Z,-5.22
2022-12-18T08:54:30.395Z,-5.18
2022-12-18T08:56:56.796Z,-5.14
2022-12-18T08:59:24.199Z,-5.06
2022-12-18T09:01:51.034Z,-5.00
2022-12-18T09:04:18.176Z,-4.95
2022-12-18T09:06:44.657Z,-4.89
2022-12-18T09:09:11.930Z,-4.83
2022-12-18T09:11:38.473Z,-4.77
2022-12-18T09:14:05.044Z,-4.73
2022-12-18T09:16:32.995Z,-4.67
2022-12-18T09:19:00.763Z,-4.62
2022-12-18T09:21:29.902Z,-4.57
2022-12-18T09:23:57.278Z,-4.51
2022-12-18T09:26:25.275Z,-4.48
2022-12-18T09:28:51.922Z,-4.42
2022-12-18T09:31:21.839Z,-4.38
2022-12-18T09:33:48.333Z,-4.34
2022-12-18T09:36:17.624Z,-4.32
2022-12-18T09:38:44.652Z,-4.27
2022-12-18T09:41:44.423Z,-4.22
2022-12-18T09:44:26.035Z,-4.20
2022-12-18T09:46:55.668Z,-4.16
2022-12-18T09:49:26.258Z,-4.10
2022-12-18T09:52:00.959Z,-4.06
2022-12-18T09:54:34.615Z,-4.01
2022-12-18T09:57:01.017Z,-3.97
2022-12-18T09:59:38.014Z,-3.90
2022-12-18T10:02:32.097Z,-3.83
2022-12-18T10:05:11.365Z,-3.79
2022-12-18T10:07:49.670Z,-3.74
2022-12-18T10:10:38.908Z,-3.66
2022-12-18T10:13:31.129Z,-3.60
2022-12-18T10:16:14.250Z,-3.54
2022-12-18T10:18:55.573Z,-3.50
2022-12-18T10:21:32.970Z,-3.43
2022-12-18T10:24:18.038Z,-3.39
2022-12-18T10:26:45.373Z,-3.36
2022-12-18T10:29:17.328Z,-3.32
2022-12-18T10:31:44.190Z,-3.29
2022-12-18T10:34:17.132Z,-3.25
2022-12-18T10:36:43.752Z,-3.23
2022-12-18T10:39:24.828Z,-3.17
2022-12-18T10:41:51.589Z,-3.16
2022-12-18T10:44:21.564Z,-3.13
2022-12-18T10:46:51.218Z,-3.09
2022-12-18T10:49:25.064Z,-3.05
2022-12-18T10:52:04.358Z,-3.02
2022-12-18T10:54:32.851Z,-2.99
2022-12-18T10:57:30.265Z,-2.95
2022-12-18T10:59:59.192Z,-2.91
2022-12-18T11:02:35.843Z,-2.87
2022-12-18T11:05:03.613Z,-2.85
2022-12-18T11:07:50.978Z,-2.79
2022-12-18T11:10:20.121Z,-2.77
2022-12-18T11:12:47.271Z,-2.73
2022-12-18T11:15:27.363Z,-2.68
2022-12-18T11:17:53.972Z,-2.65
2022-12-18T11:20:34.639Z,-2.61
2022-12-18T11:23:11.421Z,-2.57
2022-12-18T11:25:37.891Z,-2.52
2022-12-18T11:28:07.043Z,-2.50
2022-12-18T11:30:37.931Z,-2.45
2022-12-18T11:33:17.373Z,-2.39
2022-12-18T11:35:53.226Z,-2.35
2022-12-18T11:38:33.592Z,-2.32
2022-12-18T11:41:15.653Z,-2.28
2022-12-18T11:43:50.596Z,-2.23
2022-12-18T11:46:30.348Z,-2.20
2022-12-18T11:49:07.269Z,-2.16
2022-12-18T11:51:42.465Z,-2.13
2022-12-18T11:54:16.501Z,-2.10
2022-12-18T11:57:02.254Z,-2.08
2022-12-18T11:59:48.713Z,-2.08
2022-12-18T12:02:43.554Z,-2.05
2022-12-18T12:05:38.178Z,-2.05
2022-12-18T12:08:13.835Z,-2.04
2022-12-18T12:10:56.680Z,-2.01
2022-12-18T12:13:39.772Z,-2.00
2022-12-18T12:16:23.266Z,-1.97
2022-12-18T12:19:01.706Z,-1.95
2022-12-18T12:21:38.291Z,-1.94
2022-12-18T12:24:29.525Z,-1.91
2022-12-18T12:27:11.656Z,-1.88
2022-12-18T12:29:47.542Z,-1.85
2022-12-18T12:32:55.894Z,-1.81
2022-12-18T12:35:41.241Z,-1.79
2022-12-18T12:38:13.870Z,-1.77
2022-12-18T12:40:58.522Z,-1.76
2022-12-18T12:43:37.332Z,-1.74
2022-12-18T12:46:07.405Z,-1.73
2022-12-18T12:48:54.163Z,-1.70
2022-12-18T12:51:30.748Z,-1.68
2022-12-18T12:53:58.866Z,-1.67
2022-12-18T12:56:35.849Z,-1.67
2022-12-18T12:59:10.101Z,-1.65
2022-12-18T13:02:04.210Z,-1.61
2022-12-18T13:04:36.811Z,-1.59
2022-12-18T13:07:21.235Z,-1.58
2022-12-18T13:10:23.718Z,-1.57
2022-12-18T13:13:10.551Z,-1.56
2022-12-18T13:16:06.709Z,-1.55
2022-12-18T13:18:34.298Z,-1.56
2022-12-18T13:21:03.341Z,-1.54
2022-12-18T13:23:40.745Z,-1.52
2022-12-18T13:26:07.511Z,-1.51
2022-12-18T13:28:33.867Z,-1.50
2022-12-18T13:31:02.177Z,-1.49
2022-12-18T13:33:34.590Z,-1.48
2022-12-18T13:36:22.800Z,-1.48
2022-12-18T13:39:30.077Z,-1.46
2022-12-18T13:42:06.935Z,-1.46
2022-12-18T13:44:42.888Z,-1.47
2022-12-18T13:47:34.293Z,-1.44
2022-12-18T13:50:03.125Z,-1.45
2022-12-18T13:52:37.048Z,-1.44
2022-12-18T13:55:16.550Z,-1.43
2022-12-18T13:57:42.965Z,-1.43
2022-12-18T14:00:30.367Z,-1.42
2022-12-18T14:02:58.584Z,-1.42
2022-12-18T14:05:26.419Z,-1.41
2022-12-18T14:07:54.729Z,-1.41
2022-12-18T14:13:11.199Z,-1.39
2022-12-18T14:15:44.458Z,-1.36
2022-12-18T14:18:26.218Z,-1.34
2022-12-18T14:20:55.945Z,-1.35
2022-12-18T14:23:31.349Z,-1.34
2022-12-18T14:26:02.231Z,-1.34
2022-12-18T14:28:32.147Z,-1.33
2022-12-18T14:30:58.640Z,-1.31
2022-12-18T14:33:27.380Z,-1.30
2022-12-18T14:36:01.784Z,-1.30
2022-12-18T14:38:35.176Z,-1.29
2022-12-18T14:41:11.264Z,-1.27
2022-12-18T14:43:40.319Z,-1.27
2022-12-18T14:46:38.781Z,-1.26
2022-12-18T14:49:26.894Z,-1.25
2022-12-18T14:52:20.719Z,-1.23
2022-12-18T14:54:48.582Z,-1.24
2022-12-18T14:57:27.400Z,-1.23
2022-12-18T14:59:53.964Z,-1.23
2022-12-18T15:02:27.440Z,-1.24
2022-12-18T15:05:15.587Z,-1.24
2022-12-18T15:07:47.710Z,-1.23
2022-12-18T15:10:14.390Z,-1.24
2022-12-18T15:12:42.042Z,-1.24
2022-12-18T15:15:45.940Z,-1.21
2022-12-18T15:18:29.381Z,-1.21
2022-12-18T15:21:01.168Z,-1.20
2022-12-18T15:23:27.505Z,-1.21
2022-12-18T15:26:03.999Z,-1.20
2022-12-18T15:28:38.166Z,-1.20
2022-12-18T15:31:33.276Z,-1.18
2022-12-18T15:34:23.419Z,-1.17
2022-12-18T15:36:51.719Z,-1.17
2022-12-18T15:39:18.107Z,-1.16
2022-12-18T15:42:04.994Z,-1.15
2022-12-18T15:44:31.808Z,-1.16
2022-12-18T15:46:59.404Z,-1.15
2022-12-18T15:49:25.984Z,-1.16
2022-12-18T15:51:59.107Z,-1.14
2022-12-18T15:54:44.273Z,-1.15
2022-12-18T15:57:24.019Z,-1.13
2022-12-18T15:59:57.324Z,-1.13
2022-12-18T16:02:24.408Z,-1.12
2022-12-18T16:04:52.875Z,-1.13
2022-12-18T16:07:24.897Z,-1.13
2022-12-18T16:09:52.566Z,-1.12
2022-12-18T16:12:25.172Z,-1.12
2022-12-18T16:14:51.579Z,-1.11
2022-12-18T16:17:18.110Z,-1.12
2022-12-18T16:19:44.857Z,-1.10
2022-12-18T16:22:26.350Z,-1.09
2022-12-18T16:24:54.492Z,-1.10
2022-12-18T16:27:21.530Z,-1.09
2022-12-18T16:29:48.229Z,-1.09
2022-12-18T16:32:17.786Z,-1.08
2022-12-18T16:34:45.180Z,-1.08
2022-12-18T16:37:13.813Z,-1.07
2022-12-18T16:39:42.088Z,-1.07
2022-12-18T16:42:17.143Z,-1.06
2022-12-18T16:44:44.377Z,-1.07
2022-12-18T16:47:13.271Z,-1.05
2022-12-18T16:49:41.814Z,-1.04
2022-12-18T16:52:08.483Z,-1.03
2022-12-18T16:54:36.706Z,-1.03
2022-12-18T16:57:05.272Z,-1.01
2022-12-18T16:59:31.929Z,-1.01
2022-12-18T17:01:58.640Z,-1.00
2022-12-18T17:04:25.545Z,-0.99
2022-12-18T17:06:53.776Z,-0.97
2022-12-18T17:09:27.722Z,-0.96
2022-12-18T17:11:55.055Z,-0.95
2022-12-18T17:14:24.909Z,-0.94
2022-12-18T17:17:19.115Z,-0.95
2022-12-18T17:19:39.024Z,-0.94
2022-12-18T17:22:05.456Z,-0.94
2022-12-18T17:24:35.068Z,-0.92
2022-12-18T17:27:02.675Z,-0.92
2022-12-18T17:29:29.272Z,-0.91
2022-12-18T17:31:55.728Z,-0.91
2022-12-18T17:34:23.720Z,-0.90
2022-12-18T17:36:50.122Z,-0.88
2022-12-18T17:39:19.256Z,-0.89
2022-12-18T17:41:46.462Z,-0.89
2022-12-18T17:44:13.227Z,-0.89
2022-12-18T17:46:39.734Z,-0.86
2022-12-18T17:49:06.262Z,-0.84
2022-12-18T17:51:32.807Z,-0.84
2022-12-18T17:53:59.302Z,-0.85
2022-12-18T17:56:25.821Z,-0.82
2022-12-18T17:58:52.409Z,-0.82
2022-12-18T18:01:23.259Z,-0.80
2022-12-18T18:03:52.983Z,-0.81
2022-12-18T18:06:20.463Z,-0.79
2022-12-18T18:08:46.986Z,-0.78
2022-12-18T18:11:34.587Z,-0.78
2022-12-18T18:14:01.769Z,-0.78
2022-12-18T18:16:31.609Z,-0.77
2022-12-18T18:19:00.453Z,-0.77
2022-12-18T18:21:27.951Z,-0.77
2022-12-18T18:23:54.947Z,-0.74
2022-12-18T18:26:22.113Z,-0.75
2022-12-18T18:28:48.995Z,-0.72
2022-12-18T18:31:15.564Z,-0.72
2022-12-18T18:33:42.996Z,-0.71
2022-12-18T18:36:11.286Z,-0.69
2022-12-18T18:38:37.915Z,-0.70
2022-12-18T18:41:05.654Z,-0.68
2022-12-18T18:43:32.765Z,-0.67
2022-12-18T18:46:01.541Z,-0.67
2022-12-18T18:48:30.974Z,-0.65
2022-12-18T18:51:00.603Z,-0.64
2022-12-18T18:53:28.390Z,-0.63
2022-12-18T18:56:32.589Z,-0.62
2022-12-18T18:58:45.611Z,-0.60
2022-12-18T19:01:14.773Z,-0.59
2022-12-18T19:03:42.551Z,-0.57
2022-12-18T19:06:14.770Z,-0.55
2022-12-18T19:08:41.812Z,-0.55
2022-12-18T19:11:36.025Z,-0.53
2022-12-18T19:14:05.468Z,-0.51
2022-12-18T19:16:33.306Z,-0.49
2022-12-18T19:19:02.386Z,-0.47
2022-12-18T19:21:30.481Z,-0.46
2022-12-18T19:24:00.023Z,-0.44
2022-12-18T19:26:28.265Z,-0.43
2022-12-18T19:29:00.886Z,-0.39
2022-12-18T19:31:31.951Z,-0.39
2022-12-18T19:34:00.303Z,-0.39
2022-12-18T19:36:29.859Z,-0.36
2022-12-18T19:38:59.089Z,-0.34
2022-12-18T19:41:29.163Z,-0.31
2022-12-18T19:43:59.605Z,-0.30
2022-12-18T19:46:26.060Z,-0.28
2022-12-18T19:48:52.874Z,-0.27
2022-12-18T19:51:24.806Z,-0.25
2022-12-18T19:53:58.152Z,-0.25
2022-12-18T19:56:27.256Z,-0.24
2022-12-18T19:58:54.945Z,-0.24
2022-12-18T20:01:23.107Z,-0.25
2022-12-18T20:03:52.301Z,-0.26
2022-12-18T20:06:25.658Z,-0.28
2022-12-18T20:08:53.993Z,-0.29
2022-12-18T20:11:24.449Z,-0.30
2022-12-18T20:13:50.873Z,-0.32
2022-12-18T20:16:17.852Z,-0.32
2022-12-18T20:18:44.374Z,-0.36
2022-12-18T20:21:14.060Z,-0.35
2022-12-18T20:23:41.615Z,-0.37
2022-12-18T20:26:08.761Z,-0.36
2022-12-18T20:28:35.542Z,-0.37
2022-12-18T20:31:04.919Z,-0.36
2022-12-18T20:33:31.470Z,-0.37
2022-12-18T20:36:06.762Z,-0.35
2022-12-18T20:38:35.536Z,-0.37
2022-12-18T20:41:07.262Z,-0.37
2022-12-18T20:43:33.746Z,-0.38
2022-12-18T20:46:02.029Z,-0.37
2022-12-18T20:48:29.722Z,-0.38
2022-12-18T20:51:00.251Z,-0.39
2022-12-18T20:53:30.127Z,-0.41
2022-12-18T20:55:56.616Z,-0.40
2022-12-18T20:58:23.315Z,-0.41
2022-12-18T21:00:50.232Z,-0.41
2022-12-18T21:03:18.043Z,-0.42
2022-12-18T21:05:44.562Z,-0.39
2022-12-18T21:08:11.085Z,-0.41
2022-12-18T21:10:41.617Z,-0.41
2022-12-18T21:13:08.698Z,-0.40
2022-12-18T21:15:36.808Z,-0.42
2022-12-18T21:18:04.260Z,-0.41
2022-12-18T21:20:30.670Z,-0.41
2022-12-18T21:23:03.448Z,-0.40
2022-12-18T21:25:42.806Z,-0.38
2022-12-18T21:28:09.283Z,-0.38
2022-12-18T21:30:35.745Z,-0.38
2022-12-18T21:33:02.362Z,-0.37
2022-12-18T21:35:29.277Z,-0.36
2022-12-18T21:37:58.464Z,-0.34
2022-12-18T21:40:25.252Z,-0.34
2022-12-18T21:43:10.325Z,-0.33
2022-12-18T21:45:40.371Z,-0.32
2022-12-18T21:48:06.947Z,-0.31
2022-12-18T21:50:33.364Z,-0.32
2022-12-18T21:53:00.099Z,-0.31
2022-12-18T21:55:26.610Z,-0.31
2022-12-18T21:57:54.664Z,-0.31
2022-12-18T22:00:21.205Z,-0.29
2022-12-18T22:03:17.189Z,-0.27
2022-12-18T22:05:35.520Z,-0.27
2022-12-18T22:08:01.966Z,-0.25
2022-12-18T22:10:28.549Z,-0.25
2022-12-18T22:12:55.212Z,-0.23
2022-12-18T22:15:22.032Z,-0.22
2022-12-18T22:17:59.519Z,-0.21
2022-12-18T22:20:27.150Z,-0.19
2022-12-18T22:22:53.570Z,-0.18
2022-12-18T22:25:20.042Z,-0.19
2022-12-18T22:28:06.426Z,-0.18
2022-12-18T22:30:33.369Z,-0.17
2022-12-18T22:33:00.359Z,-0.16
2022-12-18T22:35:26.790Z,-0.16
2022-12-18T22:37:53.490Z,-0.16
2022-12-18T22:40:26.503Z,-0.15
2022-12-18T22:42:54.570Z,-0.16
2022-12-18T22:45:25.731Z,-0.13
2022-12-18T22:47:52.704Z,-0.12
2022-12-18T22:50:19.757Z,-0.11
2022-12-18T22:52:46.210Z,-0.11
2022-12-18T22:55:12.689Z,-0.09
2022-12-18T22:57:39.407Z,-0.08
2022-12-18T23:00:09.248Z,-0.08
2022-12-18T23:02:35.866Z,-0.08
2022-12-18T23:05:02.639Z,-0.06
2022-12-18T23:07:29.296Z,-0.05
2022-12-18T23:10:00.722Z,-0.05
2022-12-18T23:12:27.791Z,-0.03
2022-12-18T23:14:54.522Z,-0.04
2022-12-18T23:17:20.888Z,-0.02
2022-12-18T23:19:49.273Z,-0.02
2022-12-18T23:22:16.928Z,0.00
2022-12-18T23:24:43.521Z,0.03
2022-12-18T23:27:11.731Z,0.05
2022-12-18T23:29:41.873Z,0.06
2022-12-18T23:32:08.324Z,0.08
2022-12-18T23:34:34.785Z,0.09
2022-12-18T23:37:03.554Z,0.11
2022-12-18T23:39:30.449Z,0.11
2022-12-18T23:42:00.870Z,0.10
2022-12-18T23:44:28.068Z,0.11
2022-12-18T23:46:55.015Z,0.10
2022-12-18T23:49:21.763Z,0.12
2022-12-18T23:51:48.426Z,0.12
2022-12-18T23:54:14.964Z,0.14
2022-12-18T23:56:44.253Z,0.14
2022-12-18T23:59:10.822Z,0.16
